sensor_id;sensor_type;location;lat;lon;timestamp;temperature;humidity
61374;DHT22;47242;48.158;-1.586;2024-01-11T05:31:15;-0.10;74.60
61374;DHT22;47242;48.158;-1.586;2024-01-11T05:33:41;0.00;74.70
61374;DHT22;47242;48.158;-1.586;2024-01-11T05:36:07;0.00;74.50
61374;DHT22;47242;48.158;-1.586;2024-01-11T05:38:34;0.00;74.40
61374;DHT22;47242;48.158;-1.586;2024-01-11T05:41:00;0.00;74.00
61374;DHT22;47242;48.158;-1.586;2024-01-11T05:43:25;0.00;74.00
61374;DHT22;47242;48.158;-1.586;2024-01-11T05:45:51;0.00;74.30
61374;DHT22;47242;48.158;-1.586;2024-01-11T05:48:17;0.00;74.10
61374;DHT22;47242;48.158;-1.586;2024-01-11T05:50:43;0.10;74.00
61374;DHT22;47242;48.158;-1.586;2024-01-11T05:53:09;0.00;73.90
61374;DHT22;47242;48.158;-1.586;2024-01-11T05:55:35;0.00;74.10
61374;DHT22;47242;48.158;-1.586;2024-01-11T05:58:01;0.00;74.20
61374;DHT22;47242;48.158;-1.586;2024-01-11T06:00:26;0.00;74.10
61374;DHT22;47242;48.158;-1.586;2024-01-11T06:02:52;0.00;74.00
61374;DHT22;47242;48.158;-1.586;2024-01-11T06:05:18;0.00;73.80
61374;DHT22;47242;48.158;-1.586;2024-01-11T06:07:43;0.00;73.80
61374;DHT22;47242;48.158;-1.586;2024-01-11T06:10:09;0.10;74.10
61374;DHT22;47242;48.158;-1.586;2024-01-11T06:12:35;0.00;74.10
61374;DHT22;47242;48.158;-1.586;2024-01-11T06:15:01;0.00;74.10
61374;DHT22;47242;48.158;-1.586;2024-01-11T06:17:27;0.10;73.80
61374;DHT22;47242;48.158;-1.586;2024-01-11T06:19:54;0.00;74.00
61374;DHT22;47242;48.158;-1.586;2024-01-11T06:22:20;0.00;74.00
61374;DHT22;47242;48.158;-1.586;2024-01-11T06:24:46;0.00;74.10
61374;DHT22;47242;48.158;-1.586;2024-01-11T06:27:11;0.20;74.10
61374;DHT22;47242;48.158;-1.586;2024-01-11T06:29:37;0.00;73.90
61374;DHT22;47242;48.158;-1.586;2024-01-11T06:32:03;0.00;74.20
61374;DHT22;47242;48.158;-1.586;2024-01-11T06:34:28;0.00;74.30
61374;DHT22;47242;48.158;-1.586;2024-01-11T06:36:54;0.00;74.40
61374;DHT22;47242;48.158;-1.586;2024-01-11T06:39:20;0.00;74.40
61374;DHT22;47242;48.158;-1.586;2024-01-11T06:41:46;0.10;74.40
61374;DHT22;47242;48.158;-1.586;2024-01-11T06:44:12;0.10;74.10
61374;DHT22;47242;48.158;-1.586;2024-01-11T06:46:38;0.20;74.10
61374;DHT22;47242;48.158;-1.586;2024-01-11T06:49:10;0.20;73.90
61374;DHT22;47242;48.158;-1.586;2024-01-11T06:51:35;0.30;73.80
61374;DHT22;47242;48.158;-1.586;2024-01-11T06:54:01;0.30;73.50
61374;DHT22;47242;48.158;-1.586;2024-01-11T06:56:27;0.20;73.80
61374;DHT22;47242;48.158;-1.586;2024-01-11T06:58:54;0.20;74.00
61374;DHT22;47242;48.158;-1.586;2024-01-11T07:01:19;0.20;74.00
61374;DHT22;47242;48.158;-1.586;2024-01-11T07:03:45;0.20;74.30
61374;DHT22;47242;48.158;-1.586;2024-01-11T07:06:11;0.10;74.20
61374;DHT22;47242;48.158;-1.586;2024-01-11T07:08:37;0.10;74.20
61374;DHT22;47242;48.158;-1.586;2024-01-11T07:11:03;0.10;74.50
61374;DHT22;47242;48.158;-1.586;2024-01-11T07:13:29;0.20;74.50
61374;DHT22;47242;48.158;-1.586;2024-01-11T07:15:55;0.10;74.50
61374;DHT22;47242;48.158;-1.586;2024-01-11T07:18:22;0.20;74.70
61374;DHT22;47242;48.158;-1.586;2024-01-11T07:20:48;0.20;74.80
61374;DHT22;47242;48.158;-1.586;2024-01-11T07:23:14;0.20;74.60
61374;DHT22;47242;48.158;-1.586;2024-01-11T07:25:40;0.20;74.80
61374;DHT22;47242;48.158;-1.586;2024-01-11T07:28:06;0.20;75.00
61374;DHT22;47242;48.158;-1.586;2024-01-11T07:30:32;0.30;74.90
61374;DHT22;47242;48.158;-1.586;2024-01-11T07:32:58;0.40;74.90
61374;DHT22;47242;48.158;-1.586;2024-01-11T07:35:23;0.30;74.70
61374;DHT22;47242;48.158;-1.586;2024-01-11T07:37:49;0.40;74.90
61374;DHT22;47242;48.158;-1.586;2024-01-11T07:40:15;0.40;74.70
61374;DHT22;47242;48.158;-1.586;2024-01-11T07:42:42;0.50;74.80
61374;DHT22;47242;48.158;-1.586;2024-01-11T07:45:08;0.50;74.60
61374;DHT22;47242;48.158;-1.586;2024-01-11T07:47:39;0.60;74.70
61374;DHT22;47242;48.158;-1.586;2024-01-11T07:50:05;0.60;74.60
61374;DHT22;47242;48.158;-1.586;2024-01-11T07:52:38;0.60;74.70
61374;DHT22;47242;48.158;-1.586;2024-01-11T07:55:05;0.60;74.80
61374;DHT22;47242;48.158;-1.586;2024-01-11T07:57:36;0.50;74.70
61374;DHT22;47242;48.158;-1.586;2024-01-11T08:00:04;0.50;75.00
61374;DHT22;47242;48.158;-1.586;2024-01-11T08:02:33;0.60;75.00
61374;DHT22;47242;48.158;-1.586;2024-01-11T08:04:59;0.60;74.80
61374;DHT22;47242;48.158;-1.586;2024-01-11T08:07:27;0.60;74.90
61374;DHT22;47242;48.158;-1.586;2024-01-11T08:09:53;0.50;74.90
61374;DHT22;47242;48.158;-1.586;2024-01-11T08:12:19;0.50;75.00
61374;DHT22;47242;48.158;-1.586;2024-01-11T08:14:44;0.50;75.30
61374;DHT22;47242;48.158;-1.586;2024-01-11T08:17:12;0.60;75.20
61374;DHT22;47242;48.158;-1.586;2024-01-11T08:19:41;0.60;74.80
61374;DHT22;47242;48.158;-1.586;2024-01-11T08:22:10;0.70;74.80
61374;DHT22;47242;48.158;-1.586;2024-01-11T08:24:37;0.60;74.60
61374;DHT22;47242;48.158;-1.586;2024-01-11T08:27:02;0.60;74.80
61374;DHT22;47242;48.158;-1.586;2024-01-11T08:29:28;0.60;74.50
61374;DHT22;47242;48.158;-1.586;2024-01-11T08:31:54;0.60;74.50
61374;DHT22;47242;48.158;-1.586;2024-01-11T08:34:20;0.60;74.60
61374;DHT22;47242;48.158;-1.586;2024-01-11T08:36:46;0.70;74.50
61374;DHT22;47242;48.158;-1.586;2024-01-11T08:39:13;0.70;74.50
61374;DHT22;47242;48.158;-1.586;2024-01-11T08:41:40;0.60;74.60
61374;DHT22;47242;48.158;-1.586;2024-01-11T08:44:06;0.70;74.80
61374;DHT22;47242;48.158;-1.586;2024-01-11T08:46:32;0.70;74.90
61374;DHT22;47242;48.158;-1.586;2024-01-11T08:48:59;0.70;74.70
61374;DHT22;47242;48.158;-1.586;2024-01-11T08:51:26;0.70;74.80
61374;DHT22;47242;48.158;-1.586;2024-01-11T08:53:52;0.80;74.50
61374;DHT22;47242;48.158;-1.586;2024-01-11T08:56:18;0.80;74.60
61374;DHT22;47242;48.158;-1.586;2024-01-11T08:58:44;0.80;74.20
61374;DHT22;47242;48.158;-1.586;2024-01-11T09:01:10;0.80;74.50
61374;DHT22;47242;48.158;-1.586;2024-01-11T09:03:36;0.80;74.30
61374;DHT22;47242;48.158;-1.586;2024-01-11T09:06:02;0.80;74.50
61374;DHT22;47242;48.158;-1.586;2024-01-11T09:08:29;0.80;74.60
61374;DHT22;47242;48.158;-1.586;2024-01-11T09:10:58;0.90;74.50
61374;DHT22;47242;48.158;-1.586;2024-01-11T09:13:25;1.10;74.40
61374;DHT22;47242;48.158;-1.586;2024-01-11T09:15:54;1.10;74.20
61374;DHT22;47242;48.158;-1.586;2024-01-11T09:18:20;1.20;74.00
61374;DHT22;47242;48.158;-1.586;2024-01-11T09:20:49;1.20;73.70
61374;DHT22;47242;48.158;-1.586;2024-01-11T09:23:15;1.20;73.70
61374;DHT22;47242;48.158;-1.586;2024-01-11T09:25:41;1.30;73.90
61374;DHT22;47242;48.158;-1.586;2024-01-11T09:28:06;1.40;73.70
61374;DHT22;47242;48.158;-1.586;2024-01-11T09:30:33;1.50;73.60
61374;DHT22;47242;48.158;-1.586;2024-01-11T09:32:59;1.40;73.40
61374;DHT22;47242;48.158;-1.586;2024-01-11T09:35:25;1.50;73.50
61374;DHT22;47242;48.158;-1.586;2024-01-11T09:37:51;1.60;73.20
61374;DHT22;47242;48.158;-1.586;2024-01-11T09:40:18;1.50;73.40
61374;DHT22;47242;48.158;-1.586;2024-01-11T09:42:43;1.50;73.30
61374;DHT22;47242;48.158;-1.586;2024-01-11T09:45:13;1.60;73.30
61374;DHT22;47242;48.158;-1.586;2024-01-11T09:47:41;1.50;73.00
61374;DHT22;47242;48.158;-1.586;2024-01-11T09:50:08;1.50;73.10
61374;DHT22;47242;48.158;-1.586;2024-01-11T09:52:34;1.50;73.20
61374;DHT22;47242;48.158;-1.586;2024-01-11T09:55:01;1.60;73.20
61374;DHT22;47242;48.158;-1.586;2024-01-11T09:57:31;1.70;73.00
61374;DHT22;47242;48.158;-1.586;2024-01-11T09:59:58;1.80;72.80
61374;DHT22;47242;48.158;-1.586;2024-01-11T10:02:26;1.90;72.40
61374;DHT22;47242;48.158;-1.586;2024-01-11T10:04:53;2.00;72.10
61374;DHT22;47242;48.158;-1.586;2024-01-11T10:07:22;2.00;71.90
61374;DHT22;47242;48.158;-1.586;2024-01-11T10:09:48;2.00;72.10
61374;DHT22;47242;48.158;-1.586;2024-01-11T10:12:15;2.00;72.10
61374;DHT22;47242;48.158;-1.586;2024-01-11T10:14:41;2.00;72.20
61374;DHT22;47242;48.158;-1.586;2024-01-11T10:17:07;2.20;72.00
61374;DHT22;47242;48.158;-1.586;2024-01-11T10:19:32;2.20;71.80
61374;DHT22;47242;48.158;-1.586;2024-01-11T10:21:58;2.30;71.50
61374;DHT22;47242;48.158;-1.586;2024-01-11T10:24:24;2.40;71.50
61374;DHT22;47242;48.158;-1.586;2024-01-11T10:26:57;2.50;71.40
61374;DHT22;47242;48.158;-1.586;2024-01-11T10:29:31;2.50;70.80
61374;DHT22;47242;48.158;-1.586;2024-01-11T10:31:56;2.50;71.30
61374;DHT22;47242;48.158;-1.586;2024-01-11T10:34:23;2.50;71.30
61374;DHT22;47242;48.158;-1.586;2024-01-11T10:36:50;2.60;71.10
61374;DHT22;47242;48.158;-1.586;2024-01-11T10:39:17;2.70;71.00
61374;DHT22;47242;48.158;-1.586;2024-01-11T10:41:47;2.70;70.90
61374;DHT22;47242;48.158;-1.586;2024-01-11T10:44:20;2.80;70.80
61374;DHT22;47242;48.158;-1.586;2024-01-11T10:46:50;2.90;70.60
61374;DHT22;47242;48.158;-1.586;2024-01-11T10:49:22;3.00;70.70
61374;DHT22;47242;48.158;-1.586;2024-01-11T10:52:15;3.00;70.40
61374;DHT22;47242;48.158;-1.586;2024-01-11T10:54:46;3.00;70.10
61374;DHT22;47242;48.158;-1.586;2024-01-11T10:57:12;3.10;70.10
61374;DHT22;47242;48.158;-1.586;2024-01-11T10:59:39;3.20;69.90
61374;DHT22;47242;48.158;-1.586;2024-01-11T11:02:06;3.20;69.90
61374;DHT22;47242;48.158;-1.586;2024-01-11T11:04:38;3.20;69.90
61374;DHT22;47242;48.158;-1.586;2024-01-11T11:07:06;3.30;69.90
61374;DHT22;47242;48.158;-1.586;2024-01-11T11:09:34;3.30;70.00
61374;DHT22;47242;48.158;-1.586;2024-01-11T11:12:01;3.40;69.80
61374;DHT22;47242;48.158;-1.586;2024-01-11T11:14:28;3.50;69.70
61374;DHT22;47242;48.158;-1.586;2024-01-11T11:16:54;3.50;69.50
61374;DHT22;47242;48.158;-1.586;2024-01-11T11:19:20;3.60;69.80
61374;DHT22;47242;48.158;-1.586;2024-01-11T11:21:47;3.70;69.60
61374;DHT22;47242;48.158;-1.586;2024-01-11T11:24:14;3.70;69.50
61374;DHT22;47242;48.158;-1.586;2024-01-11T11:26:42;3.70;69.50
61374;DHT22;47242;48.158;-1.586;2024-01-11T11:29:08;3.80;69.20
61374;DHT22;47242;48.158;-1.586;2024-01-11T11:31:52;3.90;69.30
61374;DHT22;47242;48.158;-1.586;2024-01-11T11:34:20;4.00;68.90
61374;DHT22;47242;48.158;-1.586;2024-01-11T11:37:05;4.00;69.10
61374;DHT22;47242;48.158;-1.586;2024-01-11T11:39:31;4.10;69.10
61374;DHT22;47242;48.158;-1.586;2024-01-11T11:41:58;4.20;68.80
61374;DHT22;47242;48.158;-1.586;2024-01-11T11:44:25;4.20;68.90
61374;DHT22;47242;48.158;-1.586;2024-01-11T11:46:51;4.30;68.40
61374;DHT22;47242;48.158;-1.586;2024-01-11T11:49:17;4.30;68.60
61374;DHT22;47242;48.158;-1.586;2024-01-11T11:51:43;4.40;68.70
61374;DHT22;47242;48.158;-1.586;2024-01-11T11:54:09;4.50;68.60
61374;DHT22;47242;48.158;-1.586;2024-01-11T11:56:35;4.50;68.30
61374;DHT22;47242;48.158;-1.586;2024-01-11T11:59:02;4.60;68.30
61374;DHT22;47242;48.158;-1.586;2024-01-11T12:01:29;4.60;68.20
61374;DHT22;47242;48.158;-1.586;2024-01-11T12:03:57;4.70;68.00
61374;DHT22;47242;48.158;-1.586;2024-01-11T12:06:23;4.80;67.90
61374;DHT22;47242;48.158;-1.586;2024-01-11T12:08:52;4.90;68.00
61374;DHT22;47242;48.158;-1.586;2024-01-11T12:11:20;4.90;67.50
61374;DHT22;47242;48.158;-1.586;2024-01-11T12:13:47;5.00;67.80
61374;DHT22;47242;48.158;-1.586;2024-01-11T12:16:13;5.10;67.50
61374;DHT22;47242;48.158;-1.586;2024-01-11T12:18:40;5.20;67.60
61374;DHT22;47242;48.158;-1.586;2024-01-11T12:21:05;5.20;67.40
61374;DHT22;47242;48.158;-1.586;2024-01-11T12:23:33;5.20;67.00
61374;DHT22;47242;48.158;-1.586;2024-01-11T12:26:03;5.30;67.00
61374;DHT22;47242;48.158;-1.586;2024-01-11T12:28:31;5.30;66.90
61374;DHT22;47242;48.158;-1.586;2024-01-11T12:30:57;5.50;67.00
61374;DHT22;47242;48.158;-1.586;2024-01-11T12:33:23;5.50;66.80
61374;DHT22;47242;48.158;-1.586;2024-01-11T12:35:50;5.50;66.80
61374;DHT22;47242;48.158;-1.586;2024-01-11T12:38:16;5.60;66.40
61374;DHT22;47242;48.158;-1.586;2024-01-11T12:40:41;5.60;66.20
61374;DHT22;47242;48.158;-1.586;2024-01-11T12:43:07;5.60;66.30
61374;DHT22;47242;48.158;-1.586;2024-01-11T12:45:34;5.70;66.10
61374;DHT22;47242;48.158;-1.586;2024-01-11T12:48:01;5.60;66.00
61374;DHT22;47242;48.158;-1.586;2024-01-11T12:50:30;5.60;65.80
61374;DHT22;47242;48.158;-1.586;2024-01-11T12:53:25;5.60;66.00
61374;DHT22;47242;48.158;-1.586;2024-01-11T12:56:05;5.70;66.00
61374;DHT22;47242;48.158;-1.586;2024-01-11T12:58:36;5.70;65.70
61374;DHT22;47242;48.158;-1.586;2024-01-11T13:01:03;5.70;65.60
61374;DHT22;47242;48.158;-1.586;2024-01-11T13:03:29;5.70;65.60
61374;DHT22;47242;48.158;-1.586;2024-01-11T13:05:56;5.80;65.70
61374;DHT22;47242;48.158;-1.586;2024-01-11T13:08:22;5.80;65.80
61374;DHT22;47242;48.158;-1.586;2024-01-11T13:10:49;5.80;65.90
61374;DHT22;47242;48.158;-1.586;2024-01-11T13:13:15;5.90;65.90
61374;DHT22;47242;48.158;-1.586;2024-01-11T13:15:41;5.90;65.80
61374;DHT22;47242;48.158;-1.586;2024-01-11T13:18:06;5.90;65.40
61374;DHT22;47242;48.158;-1.586;2024-01-11T13:20:32;6.00;65.40
61374;DHT22;47242;48.158;-1.586;2024-01-11T13:23:18;6.00;65.30
61374;DHT22;47242;48.158;-1.586;2024-01-11T13:25:46;6.00;65.30
61374;DHT22;47242;48.158;-1.586;2024-01-11T13:28:13;6.00;65.10
61374;DHT22;47242;48.158;-1.586;2024-01-11T13:30:42;6.00;65.10
61374;DHT22;47242;48.158;-1.586;2024-01-11T13:33:09;6.00;65.10
61374;DHT22;47242;48.158;-1.586;2024-01-11T13:35:37;6.00;65.10
61374;DHT22;47242;48.158;-1.586;2024-01-11T13:38:03;6.00;65.00
61374;DHT22;47242;48.158;-1.586;2024-01-11T13:40:31;6.00;65.10
61374;DHT22;47242;48.158;-1.586;2024-01-11T13:42:58;6.10;64.90
61374;DHT22;47242;48.158;-1.586;2024-01-11T13:45:25;6.10;64.80
61374;DHT22;47242;48.158;-1.586;2024-01-11T13:47:51;6.10;64.80
61374;DHT22;47242;48.158;-1.586;2024-01-11T13:50:20;6.10;64.90
61374;DHT22;47242;48.158;-1.586;2024-01-11T13:52:46;6.10;64.90
61374;DHT22;47242;48.158;-1.586;2024-01-11T13:55:12;6.10;64.90
61374;DHT22;47242;48.158;-1.586;2024-01-11T13:57:38;6.10;64.70
61374;DHT22;47242;48.158;-1.586;2024-01-11T14:00:05;6.00;64.80
61374;DHT22;47242;48.158;-1.586;2024-01-11T14:02:31;6.10;65.00
61374;DHT22;47242;48.158;-1.586;2024-01-11T14:04:57;6.10;65.10
61374;DHT22;47242;48.158;-1.586;2024-01-11T14:07:23;6.10;64.90
61374;DHT22;47242;48.158;-1.586;2024-01-11T14:09:50;6.00;65.10
61374;DHT22;47242;48.158;-1.586;2024-01-11T14:12:16;6.10;65.10
61374;DHT22;47242;48.158;-1.586;2024-01-11T14:14:42;6.10;65.20
61374;DHT22;47242;48.158;-1.586;2024-01-11T14:17:10;6.10;65.30
61374;DHT22;47242;48.158;-1.586;2024-01-11T14:19:36;6.00;65.20
61374;DHT22;47242;48.158;-1.586;2024-01-11T14:22:02;6.00;65.40
61374;DHT22;47242;48.158;-1.586;2024-01-11T14:24:27;6.00;65.40
61374;DHT22;47242;48.158;-1.586;2024-01-11T14:26:54;6.00;65.40
61374;DHT22;47242;48.158;-1.586;2024-01-11T14:29:19;6.00;65.60
61374;DHT22;47242;48.158;-1.586;2024-01-11T14:31:45;5.90;65.60
61374;DHT22;47242;48.158;-1.586;2024-01-11T14:34:11;6.00;65.70
61374;DHT22;47242;48.158;-1.586;2024-01-11T14:36:37;6.00;65.70
61374;DHT22;47242;48.158;-1.586;2024-01-11T14:39:03;5.90;65.80
61374;DHT22;47242;48.158;-1.586;2024-01-11T14:41:33;5.80;65.90
61374;DHT22;47242;48.158;-1.586;2024-01-11T14:43:59;5.80;66.10
61374;DHT22;47242;48.158;-1.586;2024-01-11T14:46:29;5.70;66.20
61374;DHT22;47242;48.158;-1.586;2024-01-11T14:48:54;5.80;66.40
61374;DHT22;47242;48.158;-1.586;2024-01-11T14:51:20;5.80;66.40
61374;DHT22;47242;48.158;-1.586;2024-01-11T14:53:45;5.80;66.40
61374;DHT22;47242;48.158;-1.586;2024-01-11T14:56:11;5.80;66.70
61374;DHT22;47242;48.158;-1.586;2024-01-11T14:58:38;5.90;66.80
61374;DHT22;47242;48.158;-1.586;2024-01-11T15:01:03;5.80;66.60
61374;DHT22;47242;48.158;-1.586;2024-01-11T15:03:29;5.80;66.80
61374;DHT22;47242;48.158;-1.586;2024-01-11T15:05:55;5.80;66.70
61374;DHT22;47242;48.158;-1.586;2024-01-11T15:08:21;5.80;66.80
61374;DHT22;47242;48.158;-1.586;2024-01-11T15:10:48;5.80;66.90
61374;DHT22;47242;48.158;-1.586;2024-01-11T15:13:14;5.70;67.00
61374;DHT22;47242;48.158;-1.586;2024-01-11T15:15:39;5.80;67.10
61374;DHT22;47242;48.158;-1.586;2024-01-11T15:18:05;5.70;67.10
61374;DHT22;47242;48.158;-1.586;2024-01-11T15:20:31;5.70;67.50
61374;DHT22;47242;48.158;-1.586;2024-01-11T15:22:56;5.60;67.70
61374;DHT22;47242;48.158;-1.586;2024-01-11T15:25:22;5.60;68.00
61374;DHT22;47242;48.158;-1.586;2024-01-11T15:27:49;5.60;68.00
61374;DHT22;47242;48.158;-1.586;2024-01-11T15:30:15;5.60;68.00
61374;DHT22;47242;48.158;-1.586;2024-01-11T15:32:42;5.60;68.30
61374;DHT22;47242;48.158;-1.586;2024-01-11T15:35:07;5.60;68.40
61374;DHT22;47242;48.158;-1.586;2024-01-11T15:37:36;5.50;68.70
61374;DHT22;47242;48.158;-1.586;2024-01-11T15:40:02;5.50;69.00
61374;DHT22;47242;48.158;-1.586;2024-01-11T15:42:32;5.40;69.30
61374;DHT22;47242;48.158;-1.586;2024-01-11T15:44:57;5.30;69.60
61374;DHT22;47242;48.158;-1.586;2024-01-11T15:47:23;5.40;69.80
61374;DHT22;47242;48.158;-1.586;2024-01-11T15:49:49;5.30;70.30
61374;DHT22;47242;48.158;-1.586;2024-01-11T15:52:15;5.30;70.70
61374;DHT22;47242;48.158;-1.586;2024-01-11T15:54:41;5.20;71.50
61374;DHT22;47242;48.158;-1.586;2024-01-11T15:57:06;5.20;71.70
61374;DHT22;47242;48.158;-1.586;2024-01-11T15:59:32;5.20;72.00
61374;DHT22;47242;48.158;-1.586;2024-01-11T16:01:58;5.20;72.40
61374;DHT22;47242;48.158;-1.586;2024-01-11T16:04:24;5.10;72.70
61374;DHT22;47242;48.158;-1.586;2024-01-11T16:06:51;5.00;72.90
61374;DHT22;47242;48.158;-1.586;2024-01-11T16:09:17;5.00;73.00
61374;DHT22;47242;48.158;-1.586;2024-01-11T16:11:44;5.00;73.20
61374;DHT22;47242;48.158;-1.586;2024-01-11T16:14:10;4.90;73.50
61374;DHT22;47242;48.158;-1.586;2024-01-11T16:16:36;4.80;73.70
61374;DHT22;47242;48.158;-1.586;2024-01-11T16:19:02;4.70;73.90
61374;DHT22;47242;48.158;-1.586;2024-01-11T16:21:27;4.70;74.00
61374;DHT22;47242;48.158;-1.586;2024-01-11T16:24:00;4.60;74.10
61374;DHT22;47242;48.158;-1.586;2024-01-11T16:26:26;4.60;74.00
61374;DHT22;47242;48.158;-1.586;2024-01-11T16:28:51;4.60;73.90
61374;DHT22;47242;48.158;-1.586;2024-01-11T16:31:20;4.50;73.90
61374;DHT22;47242;48.158;-1.586;2024-01-11T16:33:47;4.50;74.00
61374;DHT22;47242;48.158;-1.586;2024-01-11T16:36:13;4.40;73.90
61374;DHT22;47242;48.158;-1.586;2024-01-11T16:38:42;4.40;73.90
61374;DHT22;47242;48.158;-1.586;2024-01-11T16:41:08;4.40;73.70
61374;DHT22;47242;48.158;-1.586;2024-01-11T16:43:34;4.30;73.50
61374;DHT22;47242;48.158;-1.586;2024-01-11T16:46:00;4.30;73.40
61374;DHT22;47242;48.158;-1.586;2024-01-11T16:48:26;4.20;73.50
61374;DHT22;47242;48.158;-1.586;2024-01-11T16:50:53;4.20;73.40
61374;DHT22;47242;48.158;-1.586;2024-01-11T16:53:19;4.20;73.40
61374;DHT22;47242;48.158;-1.586;2024-01-11T16:55:45;4.20;73.00
61374;DHT22;47242;48.158;-1.586;2024-01-11T16:58:11;4.20;73.10
61374;DHT22;47242;48.158;-1.586;2024-01-11T17:00:41;4.10;73.00
61374;DHT22;47242;48.158;-1.586;2024-01-11T17:03:07;4.10;73.10
61374;DHT22;47242;48.158;-1.586;2024-01-11T17:05:34;4.10;72.90
61374;DHT22;47242;48.158;-1.586;2024-01-11T17:08:02;4.00;72.90
61374;DHT22;47242;48.158;-1.586;2024-01-11T17:10:31;4.00;73.00
61374;DHT22;47242;48.158;-1.586;2024-01-11T17:12:59;3.90;73.20
61374;DHT22;47242;48.158;-1.586;2024-01-11T17:15:25;3.80;73.40
61374;DHT22;47242;48.158;-1.586;2024-01-11T17:17:52;3.80;73.40
61374;DHT22;47242;48.158;-1.586;2024-01-11T17:20:17;3.70;73.70
61374;DHT22;47242;48.158;-1.586;2024-01-11T17:22:43;3.70;73.80
61374;DHT22;47242;48.158;-1.586;2024-01-11T17:25:09;3.70;73.80
61374;DHT22;47242;48.158;-1.586;2024-01-11T17:27:34;3.60;74.00
61374;DHT22;47242;48.158;-1.586;2024-01-11T17:30:00;3.60;74.20
61374;DHT22;47242;48.158;-1.586;2024-01-11T17:32:26;3.60;74.30
61374;DHT22;47242;48.158;-1.586;2024-01-11T17:34:52;3.50;74.60
61374;DHT22;47242;48.158;-1.586;2024-01-11T17:37:19;3.50;74.80
61374;DHT22;47242;48.158;-1.586;2024-01-11T17:39:49;3.50;74.90
61374;DHT22;47242;48.158;-1.586;2024-01-11T17:42:15;3.60;75.00
61374;DHT22;47242;48.158;-1.586;2024-01-11T17:44:41;3.50;75.20
61374;DHT22;47242;48.158;-1.586;2024-01-11T17:47:07;3.50;75.40
61374;DHT22;47242;48.158;-1.586;2024-01-11T17:49:33;3.40;75.50
61374;DHT22;47242;48.158;-1.586;2024-01-11T17:51:58;3.40;75.70
61374;DHT22;47242;48.158;-1.586;2024-01-11T17:54:24;3.50;75.90
61374;DHT22;47242;48.158;-1.586;2024-01-11T17:56:50;3.50;75.90
61374;DHT22;47242;48.158;-1.586;2024-01-11T17:59:16;3.50;76.00
61374;DHT22;47242;48.158;-1.586;2024-01-11T18:01:42;3.50;76.10
61374;DHT22;47242;48.158;-1.586;2024-01-11T18:04:07;3.40;76.40
61374;DHT22;47242;48.158;-1.586;2024-01-11T18:06:33;3.40;76.80
61374;DHT22;47242;48.158;-1.586;2024-01-11T18:08:59;3.30;77.10
61374;DHT22;47242;48.158;-1.586;2024-01-11T18:11:26;3.40;77.20
61374;DHT22;47242;48.158;-1.586;2024-01-11T18:13:52;3.30;77.50
61374;DHT22;47242;48.158;-1.586;2024-01-11T18:16:18;3.30;77.70
61374;DHT22;47242;48.158;-1.586;2024-01-11T18:18:45;3.30;77.80
61374;DHT22;47242;48.158;-1.586;2024-01-11T18:21:13;3.40;77.60
61374;DHT22;47242;48.158;-1.586;2024-01-11T18:23:39;3.30;77.60
61374;DHT22;47242;48.158;-1.586;2024-01-11T18:26:05;3.20;78.00
61374;DHT22;47242;48.158;-1.586;2024-01-11T18:28:31;3.30;77.90
61374;DHT22;47242;48.158;-1.586;2024-01-11T18:30:57;3.30;77.80
61374;DHT22;47242;48.158;-1.586;2024-01-11T18:33:22;3.30;77.70
61374;DHT22;47242;48.158;-1.586;2024-01-11T18:35:48;3.20;77.80
61374;DHT22;47242;48.158;-1.586;2024-01-11T18:38:14;3.20;77.90
61374;DHT22;47242;48.158;-1.586;2024-01-11T18:40:40;3.20;77.80
61374;DHT22;47242;48.158;-1.586;2024-01-11T18:43:06;3.20;77.60
61374;DHT22;47242;48.158;-1.586;2024-01-11T18:45:32;3.30;77.40
61374;DHT22;47242;48.158;-1.586;2024-01-11T18:47:58;3.20;77.30
61374;DHT22;47242;48.158;-1.586;2024-01-11T18:50:26;3.30;77.10
61374;DHT22;47242;48.158;-1.586;2024-01-11T18:52:51;3.30;77.00
61374;DHT22;47242;48.158;-1.586;2024-01-11T18:55:17;3.20;76.70
61374;DHT22;47242;48.158;-1.586;2024-01-11T18:57:43;3.20;76.30
61374;DHT22;47242;48.158;-1.586;2024-01-11T19:00:11;3.20;76.20
61374;DHT22;47242;48.158;-1.586;2024-01-11T19:02:37;3.20;76.00
61374;DHT22;47242;48.158;-1.586;2024-01-11T19:05:03;3.20;75.80
61374;DHT22;47242;48.158;-1.586;2024-01-11T19:07:29;3.20;75.60
61374;DHT22;47242;48.158;-1.586;2024-01-11T19:09:55;3.20;75.30
61374;DHT22;47242;48.158;-1.586;2024-01-11T19:12:21;3.20;74.70
61374;DHT22;47242;48.158;-1.586;2024-01-11T19:14:47;3.20;74.50
61374;DHT22;47242;48.158;-1.586;2024-01-11T19:17:13;3.10;74.10
61374;DHT22;47242;48.158;-1.586;2024-01-11T19:19:39;3.10;74.00
61374;DHT22;47242;48.158;-1.586;2024-01-11T19:22:05;3.10;73.20
61374;DHT22;47242;48.158;-1.586;2024-01-11T19:24:33;3.10;72.90
61374;DHT22;47242;48.158;-1.586;2024-01-11T19:26:59;3.20;72.70
61374;DHT22;47242;48.158;-1.586;2024-01-11T19:29:25;3.10;72.30
61374;DHT22;47242;48.158;-1.586;2024-01-11T19:31:51;3.10;72.20
61374;DHT22;47242;48.158;-1.586;2024-01-11T19:34:16;3.10;72.10
61374;DHT22;47242;48.158;-1.586;2024-01-11T19:36:42;3.10;71.70
61374;DHT22;47242;48.158;-1.586;2024-01-11T19:39:08;3.00;71.30
61374;DHT22;47242;48.158;-1.586;2024-01-11T19:41:36;3.00;71.30
61374;DHT22;47242;48.158;-1.586;2024-01-11T19:44:01;3.00;71.20
61374;DHT22;47242;48.158;-1.586;2024-01-11T19:46:30;3.00;70.90
61374;DHT22;47242;48.158;-1.586;2024-01-11T19:48:58;3.00;70.90
61374;DHT22;47242;48.158;-1.586;2024-01-11T19:51:24;3.00;70.50
61374;DHT22;47242;48.158;-1.586;2024-01-11T19:53:50;2.90;70.30
61374;DHT22;47242;48.158;-1.586;2024-01-11T19:56:21;2.90;70.20
61374;DHT22;47242;48.158;-1.586;2024-01-11T19:58:48;2.90;70.00
61374;DHT22;47242;48.158;-1.586;2024-01-11T20:01:14;2.90;70.00
61374;DHT22;47242;48.158;-1.586;2024-01-11T20:03:40;2.90;69.60
61374;DHT22;47242;48.158;-1.586;2024-01-11T20:06:09;2.90;69.70
61374;DHT22;47242;48.158;-1.586;2024-01-11T20:08:36;2.80;69.60
61374;DHT22;47242;48.158;-1.586;2024-01-11T20:11:03;2.80;69.70
61374;DHT22;47242;48.158;-1.586;2024-01-11T20:13:29;2.90;69.40
61374;DHT22;47242;48.158;-1.586;2024-01-11T20:15:54;2.80;69.50
61374;DHT22;47242;48.158;-1.586;2024-01-11T20:18:20;2.80;69.10
61374;DHT22;47242;48.158;-1.586;2024-01-11T20:20:46;2.70;69.10
61374;DHT22;47242;48.158;-1.586;2024-01-11T20:23:12;2.80;69.50
61374;DHT22;47242;48.158;-1.586;2024-01-11T20:25:38;2.70;69.30
61374;DHT22;47242;48.158;-1.586;2024-01-11T20:28:05;2.80;69.30
61374;DHT22;47242;48.158;-1.586;2024-01-11T20:30:31;2.70;69.30
61374;DHT22;47242;48.158;-1.586;2024-01-11T20:32:56;2.70;69.00
61374;DHT22;47242;48.158;-1.586;2024-01-11T20:35:22;2.70;69.30
61374;DHT22;47242;48.158;-1.586;2024-01-11T20:37:48;2.70;69.20
61374;DHT22;47242;48.158;-1.586;2024-01-11T20:40:14;2.70;69.20
61374;DHT22;47242;48.158;-1.586;2024-01-11T20:42:40;2.70;69.00
61374;DHT22;47242;48.158;-1.586;2024-01-11T20:45:06;2.70;69.10
61374;DHT22;47242;48.158;-1.586;2024-01-11T20:47:32;2.70;68.80
61374;DHT22;47242;48.158;-1.586;2024-01-11T20:49:58;2.70;69.10
61374;DHT22;47242;48.158;-1.586;2024-01-11T20:52:23;2.60;68.60
61374;DHT22;47242;48.158;-1.586;2024-01-11T20:54:49;2.60;68.80
61374;DHT22;47242;48.158;-1.586;2024-01-11T20:57:14;2.60;68.60